Port Orange, Florida
Current Conditions -  °F | °C
As of 4:53 AM on Thursday 23 Oct 2014 (Local Time) from KDAB Reporting Station
Scattered Clouds Scattered Clouds  
Wind Chill: 68°   Ceiling: Unl
Heat Index: 68°   Visibility: 10mi
Dew Point: 53°   Wind: 9mph
Humidity: 59%   Direction: 40°NE
Pressure: 29.98"   Gusts: NA
Location:  29.13°N, 81.02°W
Report Text: KDAB 230853Z 04008KT 10SM SCT150 20/12 A2998 RMK AO2 SLP151 T02000117 55007
Loading
Personal Weather Stations






























Interactive Weather Map
Tropical Storm Tracking
New forecast layout! Learn more

10-Day Weather Forecast

Advertisements
Track Severe Weather on mobile